Time;durP1;ratioP1;P1;durP2;ratioP2;P2;SDS_P1;SDS_P2;PMS_P1;PMS_P2;Temp;Humidity;BMP_temperature;BMP_pressure;BME280_temperature;BME280_humidity;BME280_pressure;Samples;Min_cycle;Max_cycle;Signal;HPM_P1;HPM_P2
2021/07/18 00:01:46;;;;;;;9.10;5.80;;;;;;;23.46;65.67;100350.97;5092343;28;20211;-66
2021/07/18 00:04:12;;;;;;;8.80;5.27;;;;;;;24.19;65.56;100448.81;5091201;28;20569;-66
2021/07/18 00:06:37;;;;;;;8.53;5.43;;;;;;;24.21;65.99;100451.88;5091846;28;20258;-66
2021/07/18 00:09:05;;;;;;;9.37;5.73;;;;;;;24.22;65.91;100452.63;5083045;28;20554;-66
2021/07/18 00:11:31;;;;;;;11.57;6.07;;;;;;;24.23;65.99;100454.94;5112591;28;20227;-66
2021/07/18 00:13:56;;;;;;;10.93;6.60;;;;;;;23.93;65.90;100394.00;5111255;28;20183;-66
2021/07/18 00:16:22;;;;;;;10.03;5.97;;;;;;;24.21;65.90;100448.28;5112215;28;20182;-66
2021/07/18 00:18:47;;;;;;;8.80;5.90;;;;;;;24.25;66.02;100454.41;5112370;28;20182;-69
2021/07/18 00:21:13;;;;;;;8.03;5.70;;;;;;;24.18;66.64;100450.09;5112480;28;20181;-66
2021/07/18 00:23:39;;;;;;;8.37;6.13;;;;;;;24.12;66.74;100457.91;5111465;28;20189;-66
2021/07/18 00:26:05;;;;;;;9.43;5.67;;;;;;;23.43;66.42;100340.69;5111640;28;20178;-66
2021/07/18 00:28:31;;;;;;;9.13;6.63;;;;;;;24.13;66.56;100447.31;5112278;28;20189;-66
2021/07/18 00:30:57;;;;;;;8.40;6.40;;;;;;;24.07;66.95;100449.44;5112064;28;20213;-67
2021/07/18 00:33:22;;;;;;;12.90;6.67;;;;;;;24.08;66.86;100443.25;5111495;28;20186;-66
2021/07/18 00:35:47;;;;;;;11.47;6.10;;;;;;;24.09;66.61;100441.97;5111179;28;20243;-66
2021/07/18 00:38:13;;;;;;;11.20;6.20;;;;;;;23.98;66.99;100438.47;5112207;28;20561;-66
2021/07/18 00:40:38;;;;;;;8.13;6.43;;;;;;;24.04;67.01;100453.31;5111797;27;20226;-66
2021/07/18 00:43:05;;;;;;;8.73;5.87;;;;;;;24.05;66.82;100460.53;5111229;28;20254;-66
2021/07/18 00:45:30;;;;;;;9.77;6.27;;;;;;;24.02;66.90;100441.78;5111665;28;20178;-66
2021/07/18 00:47:56;;;;;;;8.23;6.10;;;;;;;24.00;66.84;100456.44;5111328;28;20182;-66
2021/07/18 00:50:22;;;;;;;7.20;6.00;;;;;;;24.04;66.63;100451.28;5111873;28;20247;-66
2021/07/18 00:52:48;;;;;;;8.00;6.40;;;;;;;24.02;66.41;100442.56;5110969;28;20217;-66
2021/07/18 00:55:14;;;;;;;8.57;6.33;;;;;;;24.00;66.57;100447.97;5111108;28;20189;-66
2021/07/18 00:57:43;;;;;;;7.73;6.17;;;;;;;23.92;66.68;100451.91;5110320;28;20227;-66
2021/07/18 01:00:11;;;;;;;7.40;5.77;;;;;;;23.92;66.63;100449.84;5104707;28;20183;-66
2021/07/18 01:02:38;;;;;;;8.23;6.60;;;;;;;23.76;66.74;100430.16;5090353;28;20636;-66
2021/07/18 01:05:05;;;;;;;15.77;7.73;;;;;;;23.77;67.08;100443.78;5091448;28;20244;-67
2021/07/18 01:07:31;;;;;;;17.57;8.80;;;;;;;23.75;66.65;100443.50;5090508;28;20175;-66
2021/07/18 01:09:57;;;;;;;15.33;7.80;;;;;;;23.64;66.69;100445.69;5103667;28;20184;-67
2021/07/18 01:12:22;;;;;;;16.27;6.43;;;;;;;23.53;66.50;100448.59;5110906;28;20205;-67
2021/07/18 01:14:49;;;;;;;8.13;6.17;;;;;;;23.54;66.72;100450.88;5111272;28;20185;-67
2021/07/18 01:17:16;;;;;;;10.07;7.03;;;;;;;23.52;67.17;100464.03;5110529;28;20170;-67
2021/07/18 01:19:41;;;;;;;11.53;7.20;;;;;;;23.43;67.42;100444.56;5111573;28;20177;-66
2021/07/18 01:22:08;;;;;;;11.23;7.43;;;;;;;23.46;67.22;100454.81;5111313;28;20170;-66
2021/07/18 01:24:34;;;;;;;10.20;7.53;;;;;;;23.41;67.45;100459.22;5110900;28;20185;-66
2021/07/18 01:27:02;;;;;;;9.97;7.40;;;;;;;23.40;67.25;100448.44;5092422;28;20197;-67
2021/07/18 01:29:29;;;;;;;10.33;7.30;;;;;;;23.35;67.50;100449.25;5111129;28;20643;-66
2021/07/18 01:31:58;;;;;;;12.33;7.20;;;;;;;23.35;67.51;100452.06;5110967;28;20248;-66
2021/07/18 01:34:24;;;;;;;8.90;7.10;;;;;;;23.13;67.46;100438.81;5110357;28;20190;-66
2021/07/18 01:36:51;;;;;;;10.90;7.20;;;;;;;23.27;67.77;100453.91;5110757;28;20243;-66
2021/07/18 01:39:17;;;;;;;8.23;7.20;;;;;;;23.19;67.98;100452.94;5111218;28;20370;-66
2021/07/18 01:41:42;;;;;;;11.43;7.17;;;;;;;23.15;67.79;100450.38;5110949;28;20701;-66
2021/07/18 01:44:08;;;;;;;10.83;6.70;;;;;;;22.70;67.74;100386.91;5110979;28;20210;-66
2021/07/18 01:46:36;;;;;;;10.40;6.90;;;;;;;23.10;67.92;100470.19;5110718;28;20643;-66
2021/07/18 01:49:07;;;;;;;10.03;6.87;;;;;;;23.08;67.79;100448.09;5110619;28;20186;-66
2021/07/18 01:51:32;;;;;;;10.40;7.57;;;;;;;22.90;68.17;100445.09;5111061;28;20198;-66
2021/07/18 01:53:59;;;;;;;11.73;7.20;;;;;;;22.97;68.75;100453.78;5110262;28;20245;-66
2021/07/18 01:56:26;;;;;;;8.37;7.50;;;;;;;22.95;69.20;100458.44;5110464;28;20191;-66
2021/07/18 01:58:53;;;;;;;11.77;7.27;;;;;;;22.97;69.24;100459.44;5110092;28;20174;-67
2021/07/18 02:01:23;;;;;;;9.43;7.60;;;;;;;22.99;68.86;100459.72;5110981;28;20648;-66
2021/07/18 02:03:49;;;;;;;10.00;7.03;;;;;;;23.00;68.46;100468.94;5110146;28;20680;-67
2021/07/18 02:06:15;;;;;;;8.80;7.27;;;;;;;22.99;68.58;100456.09;5111036;28;20202;-66
2021/07/18 02:08:40;;;;;;;12.43;7.13;;;;;;;22.99;68.63;100456.88;5112019;28;20687;-66
2021/07/18 02:11:05;;;;;;;13.93;8.13;;;;;;;22.99;68.81;100458.94;5114965;28;20585;-67
2021/07/18 02:13:32;;;;;;;13.07;7.80;;;;;;;22.97;68.48;100459.44;5114125;28;20250;-69
2021/07/18 02:15:59;;;;;;;10.27;7.83;;;;;;;22.92;68.73;100459.50;5114845;28;20557;-66
2021/07/18 02:18:25;;;;;;;12.07;7.70;;;;;;;22.81;69.07;100462.34;5114439;28;20174;-66
2021/07/18 02:20:53;;;;;;;14.63;7.07;;;;;;;22.28;68.84;100392.97;5114145;28;20174;-67
2021/07/18 02:23:18;;;;;;;9.87;6.97;;;;;;;22.27;71.22;100455.56;5114068;28;20693;-67
2021/07/18 02:25:43;;;;;;;11.57;7.97;;;;;;;21.76;72.60;100436.41;5114625;28;20194;-66
2021/07/18 02:28:09;;;;;;;9.90;7.43;;;;;;;21.77;73.41;100457.69;5114317;28;20170;-66
2021/07/18 02:30:35;;;;;;;8.33;7.50;;;;;;;21.70;73.75;100461.03;5114106;28;20642;-66
2021/07/18 02:33:00;;;;;;;11.73;7.90;;;;;;;21.17;73.90;100385.84;5113703;28;20206;-66
2021/07/18 02:35:26;;;;;;;8.07;7.27;;;;;;;21.54;74.54;100468.16;5114522;28;20563;-66
2021/07/18 02:37:51;;;;;;;10.37;7.30;;;;;;;21.53;74.37;100482.75;5096292;28;20209;-66
2021/07/18 02:40:19;;;;;;;11.77;7.60;;;;;;;21.54;74.66;100464.56;5113545;28;20569;-65
2021/07/18 02:42:44;;;;;;;12.00;7.97;;;;;;;21.44;74.98;100463.28;5113418;28;20163;-66
2021/07/18 02:45:12;;;;;;;15.13;7.27;;;;;;;21.55;74.46;100460.47;5114162;28;20674;-66
2021/07/18 02:47:38;;;;;;;9.60;7.33;;;;;;;21.72;73.37;100462.06;5114213;28;20188;-66
2021/07/18 02:50:05;;;;;;;13.90;7.30;;;;;;;21.82;72.76;100465.38;5113120;28;20190;-66
2021/07/18 02:52:31;;;;;;;9.20;6.73;;;;;;;21.93;71.98;100471.00;5113256;28;20221;-66
2021/07/18 02:54:57;;;;;;;11.53;6.60;;;;;;;21.95;71.40;100460.75;5114142;28;20177;-67
2021/07/18 02:57:22;;;;;;;7.80;7.00;;;;;;;22.08;71.23;100465.88;5113507;28;20178;-67
2021/07/18 02:59:48;;;;;;;10.07;6.77;;;;;;;22.15;70.79;100471.00;5113435;28;20185;-66
2021/07/18 03:02:13;;;;;;;8.70;6.80;;;;;;;22.20;70.56;100473.81;5113306;28;20171;-66
2021/07/18 03:04:39;;;;;;;9.07;6.50;;;;;;;22.26;70.44;100482.28;5113416;28;20185;-66
2021/07/18 03:07:04;;;;;;;9.47;7.37;;;;;;;22.34;70.39;100474.78;5095534;28;20178;-66
2021/07/18 03:09:30;;;;;;;7.87;6.57;;;;;;;22.24;70.26;100460.19;5113376;28;20234;-66
2021/07/18 03:11:55;;;;;;;10.00;6.80;;;;;;;22.40;70.26;100486.84;5113239;28;20198;-66
2021/07/18 03:14:21;;;;;;;9.60;6.37;;;;;;;22.40;70.34;100486.84;5113025;28;20174;-67
2021/07/18 03:16:49;;;;;;;9.93;7.07;;;;;;;22.13;70.14;100437.66;5113793;28;20675;-67
2021/07/18 03:19:15;;;;;;;9.60;7.30;;;;;;;22.52;69.84;100482.75;5113324;28;20170;-67
2021/07/18 03:21:41;;;;;;;11.77;7.13;;;;;;;21.70;69.54;100359.50;5094316;28;20174;-69
2021/07/18 03:24:07;;;;;;;13.03;7.20;;;;;;;21.90;69.39;100379.69;5112737;28;20265;-69
2021/07/18 03:26:33;;;;;;;10.20;7.07;;;;;;;22.64;69.40;100495.53;5113515;28;20206;-67
2021/07/18 03:28:58;;;;;;;9.93;7.27;;;;;;;22.65;69.20;100492.22;5113439;28;20564;-67
2021/07/18 03:31:24;;;;;;;12.83;6.70;;;;;;;22.09;69.39;100406.09;5112533;28;20242;-67
2021/07/18 03:33:49;;;;;;;12.73;7.47;;;;;;;22.63;69.28;100491.94;5112327;28;20239;-67
2021/07/18 03:36:15;;;;;;;10.33;7.03;;;;;;;22.28;69.17;100437.34;5113231;28;20178;-67
2021/07/18 03:38:41;;;;;;;13.80;6.90;;;;;;;22.69;69.19;100495.53;5113331;28;20257;-67
2021/07/18 03:41:06;;;;;;;9.37;6.47;;;;;;;22.71;68.99;100504.25;5112522;28;20283;-66
2021/07/18 03:43:32;;;;;;;12.13;6.50;;;;;;;22.74;68.72;100510.91;5112012;28;20171;-67
2021/07/18 03:45:58;;;;;;;9.00;6.37;;;;;;;22.52;68.60;100472.22;5113126;28;20231;-66
2021/07/18 03:48:24;;;;;;;9.73;6.13;;;;;;;22.42;68.44;100459.63;5113069;28;20206;-67
2021/07/18 03:50:49;;;;;;;11.60;7.03;;;;;;;22.53;68.59;100461.69;5112343;28;20182;-66
2021/07/18 03:53:16;;;;;;;17.87;7.20;;;;;;;22.90;68.50;100510.88;5111886;28;20667;-68
2021/07/18 03:55:42;;;;;;;20.20;7.47;;;;;;;22.84;68.32;100487.53;5112477;28;20171;-66
2021/07/18 03:58:08;;;;;;;11.17;7.30;;;;;;;23.00;68.25;100512.13;5112888;28;20250;-66
2021/07/18 04:00:33;;;;;;;9.40;7.23;;;;;;;23.05;68.48;100496.41;5112729;28;20630;-67
2021/07/18 04:02:59;;;;;;;10.87;6.97;;;;;;;23.06;68.41;100493.06;5111161;28;20181;-66
2021/07/18 04:05:24;;;;;;;11.23;7.07;;;;;;;23.18;68.41;100502.31;5112785;28;20174;-67
2021/07/18 04:07:50;;;;;;;12.07;6.43;;;;;;;;;;5112686;28;20185;-67
2021/07/18 04:10:15;;;;;;;12.13;6.27;;;;;;;23.21;68.25;100507.66;5109019;28;20182;-67
2021/07/18 04:12:41;;;;;;;12.17;6.43;;;;;;;23.26;67.66;100504.03;5110980;28;20750;-67
2021/07/18 04:15:07;;;;;;;10.50;6.80;;;;;;;23.26;67.89;100511.75;5112392;28;20170;-67
2021/07/18 04:17:33;;;;;;;10.43;6.73;;;;;;;23.35;67.69;100503.75;5112582;28;20175;-67
2021/07/18 04:19:59;;;;;;;17.83;8.43;;;;;;;23.43;67.63;100512.44;5112358;28;20678;-67
2021/07/18 04:22:24;;;;;;;14.83;6.97;;;;;;;23.48;67.42;100511.59;5111434;28;20277;-67
2021/07/18 04:24:50;;;;;;;13.37;7.20;;;;;;;23.58;67.01;100515.66;5111796;28;20174;-67
2021/07/18 04:27:15;;;;;;;11.37;6.93;;;;;;;23.66;66.59;100517.44;5112484;28;20170;-67
2021/07/18 04:29:41;;;;;;;13.10;7.30;;;;;;;23.62;66.37;100499.19;5112314;28;20174;-67
2021/07/18 04:32:07;;;;;;;11.93;7.07;;;;;;;23.78;66.14;100516.03;5110490;28;20193;-66
2021/07/18 04:34:32;;;;;;;14.97;7.40;;;;;;;23.72;66.30;100520.97;5111389;28;20178;-67
2021/07/18 04:36:58;;;;;;;12.87;8.13;;;;;;;23.70;66.37;100532.03;5111993;28;20170;-67
2021/07/18 04:39:25;;;;;;;9.60;7.27;;;;;;;23.38;66.72;100479.31;5112233;28;20178;-67
2021/07/18 04:41:50;;;;;;;11.93;7.90;;;;;;;23.80;66.56;100524.75;5111775;28;20271;-67
2021/07/18 04:44:16;;;;;;;10.43;7.60;;;;;;;23.94;66.48;100520.06;5110306;28;20244;-67
2021/07/18 04:46:41;;;;;;;10.70;7.57;;;;;;;23.99;66.21;100524.91;5112069;28;20170;-67
2021/07/18 04:49:07;;;;;;;10.17;7.60;;;;;;;23.45;66.04;100434.28;5111795;28;20171;-67
2021/07/18 04:51:32;;;;;;;14.27;8.27;;;;;;;24.18;66.46;100523.72;5111788;28;20285;-67
2021/07/18 04:53:58;;;;;;;8.83;7.73;;;;;;;24.31;66.01;100538.00;5110214;28;20179;-67
2021/07/18 04:56:23;;;;;;;12.23;8.40;;;;;;;24.32;65.48;100533.13;5111325;28;20198;-67
2021/07/18 04:58:49;;;;;;;14.00;9.37;;;;;;;23.44;65.88;100398.78;5111741;28;20660;-67
2021/07/18 05:01:14;;;;;;;12.23;9.37;;;;;;;24.43;65.93;100530.94;5111647;28;20253;-67
2021/07/18 05:03:40;;;;;;;12.80;9.10;;;;;;;24.44;65.63;100535.31;5110532;28;20174;-67
2021/07/18 05:06:05;;;;;;;15.17;9.67;;;;;;;24.45;66.18;100534.00;5111071;28;20262;-67
2021/07/18 05:08:34;;;;;;;12.20;9.87;;;;;;;24.60;65.91;100542.91;5108004;28;20670;-67
2021/07/18 05:11:01;;;;;;;13.60;10.20;;;;;;;24.07;65.33;100432.47;5111405;28;20227;-67
2021/07/18 05:13:27;;;;;;;11.83;8.93;;;;;;;24.39;64.92;100487.22;5110228;28;20178;-67
2021/07/18 05:15:53;;;;;;;16.80;9.13;;;;;;;24.74;63.66;100530.41;5110970;28;20258;-67
2021/07/18 05:18:18;;;;;;;13.40;8.10;;;;;;;24.22;62.87;100450.59;5111549;28;20170;-67
2021/07/18 05:20:44;;;;;;;14.80;7.87;;;;;;;24.99;62.70;100536.78;5111356;28;20257;-67
2021/07/18 05:23:11;;;;;;;12.57;7.40;;;;;;;25.17;62.26;100538.91;5110580;28;20257;-67
2021/07/18 05:25:37;;;;;;;12.07;7.60;;;;;;;25.22;60.64;100543.72;5110614;28;20174;-67
2021/07/18 05:28:05;;;;;;;15.40;8.63;;;;;;;24.26;61.82;100388.00;5111013;28;20174;-67
2021/07/18 05:30:30;;;;;;;15.77;8.30;;;;;;;25.44;61.43;100544.22;5109605;28;20189;-67
2021/07/18 05:32:56;;;;;;;14.90;7.80;;;;;;;25.61;61.31;100550.44;5099835;28;20194;-67
2021/07/18 05:35:23;;;;;;;11.77;8.73;;;;;;;25.68;60.65;100549.03;5092550;28;20182;-67
2021/07/18 05:37:50;;;;;;;14.10;8.43;;;;;;;25.82;60.32;100544.94;5105841;27;20182;-67
2021/07/18 05:40:16;;;;;;;11.00;8.03;;;;;;;25.98;59.60;100552.47;5073871;28;20214;-66
2021/07/18 05:42:41;;;;;;;16.83;8.40;;;;;;;26.11;60.00;100547.59;5095238;28;20182;-67
2021/07/18 05:45:11;;;;;;;11.40;8.00;;;;;;;26.24;59.79;100547.63;5097076;28;20299;-67
2021/07/18 05:47:37;;;;;;;12.43;7.60;;;;;;;26.03;57.76;100538.19;5096184;28;20175;-66
2021/07/18 05:50:04;;;;;;;14.83;8.20;;;;;;;25.92;57.96;100549.72;5088350;28;20193;-66
2021/07/18 05:52:31;;;;;;;14.77;8.70;;;;;;;26.02;58.38;100553.69;5088717;28;20285;-67
2021/07/18 05:54:57;;;;;;;11.27;7.80;;;;;;;26.07;57.29;100547.16;5102095;28;20277;-66
2021/07/18 05:57:22;;;;;;;12.07;7.53;;;;;;;25.54;56.65;100443.22;5091094;28;20181;-67
2021/07/18 05:59:48;;;;;;;14.37;7.73;;;;;;;25.52;55.37;100431.66;5100791;28;20204;-67
2021/07/18 06:02:15;;;;;;;11.30;7.43;;;;;;;26.30;55.74;100550.41;5101653;28;20253;-66
2021/07/18 06:04:41;;;;;;;11.20;7.10;;;;;;;26.37;56.50;100544.84;5100981;28;20294;-66
2021/07/18 06:07:07;;;;;;;12.40;7.13;;;;;;;26.38;56.00;100537.06;5103308;28;20251;-66
2021/07/18 06:09:33;;;;;;;12.43;7.70;;;;;;;26.31;55.85;100509.31;5103530;28;20611;-66
2021/07/18 06:11:58;;;;;;;14.97;7.30;;;;;;;26.68;55.33;100546.88;5103568;28;20241;-66
2021/07/18 06:14:23;;;;;;;10.07;6.67;;;;;;;26.78;56.22;100544.34;5089435;28;20220;-67
2021/07/18 06:16:49;;;;;;;10.90;6.67;;;;;;;26.85;55.65;100549.38;5098689;28;20207;-67
2021/07/18 06:19:14;;;;;;;12.03;6.13;;;;;;;26.25;53.87;100457.53;5103985;28;20301;-66
2021/07/18 06:21:40;;;;;;;18.67;6.50;;;;;;;25.95;54.15;100397.41;5094207;28;20202;-67
2021/07/18 06:24:05;;;;;;;16.37;6.23;;;;;;;27.05;53.90;100543.03;5094397;28;20194;-66
2021/07/18 06:26:32;;;;;;;9.83;5.80;;;;;;;27.24;53.97;100538.00;5094452;28;20190;-67
2021/07/18 06:28:57;;;;;;;11.50;5.90;;;;;;;27.07;50.90;100514.81;5096443;28;20207;-67
2021/07/18 06:31:24;;;;;;;13.97;6.10;;;;;;;27.02;51.52;100501.47;5100350;28;20230;-67
2021/07/18 06:33:49;;;;;;;10.63;5.63;;;;;;;26.71;50.58;100440.59;5092131;28;20524;-67
2021/07/18 06:36:15;;;;;;;11.37;5.80;;;;;;;27.45;50.61;100541.69;5093288;28;20278;-67
2021/07/18 06:38:40;;;;;;;13.43;5.93;;;;;;;27.35;50.29;100543.47;5085187;28;20666;-66
2021/07/18 06:41:06;;;;;;;14.23;5.77;;;;;;;27.47;50.33;100539.81;5094121;28;20287;-67
2021/07/18 06:43:31;;;;;;;10.33;6.07;;;;;;;27.60;50.67;100541.88;5089026;28;20179;-67
2021/07/18 06:45:57;;;;;;;11.30;5.90;;;;;;;27.77;50.99;100545.09;5099617;28;20305;-66
2021/07/18 06:48:23;;;;;;;10.77;5.77;;;;;;;27.96;50.54;100540.00;5093068;28;20560;-66
2021/07/18 06:50:49;;;;;;;14.57;5.60;;;;;;;28.13;48.89;100535.41;5093478;28;20182;-66
2021/07/18 06:53:14;;;;;;;12.47;5.77;;;;;;;28.01;48.08;100534.19;5094127;28;20267;-66
2021/07/18 06:55:40;;;;;;;11.43;5.47;;;;;;;27.92;47.87;100525.34;5098854;28;20828;-67
2021/07/18 06:58:05;;;;;;;11.47;5.63;;;;;;;28.05;48.32;100506.09;5093841;28;20458;-66
2021/07/18 07:00:31;;;;;;;11.23;5.90;;;;;;;28.28;48.32;100527.00;5097637;27;20182;-66
2021/07/18 07:02:56;;;;;;;11.40;5.37;;;;;;;28.30;47.15;100523.59;5103233;27;20179;-66
2021/07/18 07:05:22;;;;;;;12.40;6.05;;;;;;;27.88;47.52;100443.09;5098488;28;20178;-66
2021/07/18 07:07:48;;;;;;;13.88;6.00;;;;;;;28.59;47.20;100536.56;5106047;28;20571;-67
2021/07/18 07:10:15;;;;;;;12.05;5.72;;;;;;;28.54;45.61;100528.94;5108853;28;20262;-67
2021/07/18 07:12:41;;;;;;;9.13;5.47;;;;;;;28.57;46.19;100522.91;5107114;28;20333;-67
2021/07/18 07:15:09;;;;;;;12.68;5.68;;;;;;;28.05;46.21;100426.31;5108976;28;20718;-66
2021/07/18 07:17:35;;;;;;;13.68;5.47;;;;;;;28.89;46.21;100531.06;5107694;28;20264;-67
2021/07/18 07:20:00;;;;;;;11.15;5.60;;;;;;;28.95;46.34;100525.97;5108932;28;20692;-67
2021/07/18 07:22:26;;;;;;;12.50;5.70;;;;;;;28.86;46.14;100515.09;5107815;28;20197;-66
2021/07/18 07:24:51;;;;;;;11.15;6.40;;;;;;;28.93;46.86;100520.84;5109334;28;20182;-67
2021/07/18 07:27:17;;;;;;;12.70;6.03;;;;;;;28.70;46.77;100470.69;5109444;28;20183;-67
2021/07/18 07:29:42;;;;;;;12.60;5.68;;;;;;;29.05;46.39;100515.59;5107665;28;20178;-66
2021/07/18 07:32:08;;;;;;;13.25;5.90;;;;;;;28.88;45.87;100515.28;5107942;28;20253;-67
2021/07/18 07:34:33;;;;;;;11.25;6.57;;;;;;;28.98;46.28;100539.16;5098445;28;20695;-67
2021/07/18 07:36:59;;;;;;;13.77;6.10;;;;;;;28.50;46.03;100437.31;5105638;28;20182;-67
2021/07/18 07:39:25;;;;;;;10.90;5.65;;;;;;;28.79;45.94;100445.28;5105216;28;20242;-66
2021/07/18 07:41:50;;;;;;;10.23;5.78;;;;;;;29.45;45.53;100513.84;5097060;28;20761;-67
2021/07/18 07:44:16;;;;;;;10.18;5.43;;;;;;;29.53;46.04;100520.34;5090716;28;20193;-66
2021/07/18 07:46:41;;;;;;;10.48;5.75;;;;;;;29.65;46.06;100518.69;5095654;28;20186;-67
2021/07/18 07:49:07;;;;;;;11.77;6.00;;;;;;;29.78;45.36;100519.28;5096830;28;20213;-67
2021/07/18 07:51:33;;;;;;;11.75;5.03;;;;;;;29.87;44.82;100521.59;5100518;28;20207;-67
2021/07/18 07:53:58;;;;;;;8.82;5.38;;;;;;;29.37;44.81;100425.34;5100894;28;20182;-67
2021/07/18 07:56:24;;;;;;;12.55;6.00;;;;;;;29.77;44.41;100491.28;5109969;28;20683;-66
2021/07/18 07:58:49;;;;;;;13.20;5.57;;;;;;;30.15;43.99;100503.56;5108989;28;20659;-67
2021/07/18 08:01:15;;;;;;;9.55;5.43;;;;;;;30.29;44.03;100513.47;5108469;28;20255;-67
2021/07/18 08:03:41;;;;;;;11.98;5.50;;;;;;;30.41;44.20;100512.50;5106451;28;20265;-67
2021/07/18 08:06:06;;;;;;;13.55;5.00;;;;;;;30.30;42.90;100507.16;5107288;28;20189;-67
2021/07/18 08:08:32;;;;;;;9.10;4.82;;;;;;;30.28;43.23;100514.78;5095222;27;20224;-67
2021/07/18 08:10:59;;;;;;;10.93;4.82;;;;;;;30.53;43.76;100512.88;5078681;28;20174;-66
2021/07/18 08:13:25;;;;;;;17.25;4.43;;;;;;;30.45;40.89;100509.28;5110910;28;20667;-67
2021/07/18 08:15:50;;;;;;;9.57;3.80;;;;;;;30.38;41.71;100515.75;5109907;28;20261;-67
2021/07/18 08:18:16;;;;;;;6.78;3.78;;;;;;;30.31;40.67;100508.69;5109799;28;20546;-66
2021/07/18 08:20:41;;;;;;;11.02;4.10;;;;;;;30.24;40.83;100503.75;5103134;28;20181;-67
2021/07/18 08:23:06;;;;;;;6.80;3.90;;;;;;;29.85;41.12;100452.09;5109095;28;20174;-67
2021/07/18 08:25:32;;;;;;;6.57;3.80;;;;;;;30.29;42.31;100502.78;5109500;28;20235;-66
2021/07/18 08:27:58;;;;;;;8.60;4.00;;;;;;;30.36;41.86;100507.00;5109750;28;20193;-66
2021/07/18 08:30:23;;;;;;;10.30;4.18;;;;;;;30.45;42.20;100504.31;5108937;28;20265;-67
2021/07/18 08:32:51;;;;;;;13.25;4.18;;;;;;;30.57;41.67;100499.72;5094099;28;20202;-67
2021/07/18 08:35:17;;;;;;;11.98;4.38;;;;;;;30.46;41.77;100451.50;5103373;28;20186;-67
2021/07/18 08:37:43;;;;;;;11.93;4.30;;;;;;;30.83;41.62;100499.31;5108035;28;20281;-67
2021/07/18 08:40:11;;;;;;;6.72;4.13;;;;;;;30.79;41.53;100498.94;5108705;28;20178;-67
2021/07/18 08:42:37;;;;;;;9.35;4.10;;;;;;;31.04;40.33;100505.53;5107291;28;20297;-66
2021/07/18 08:45:05;;;;;;;8.60;3.75;;;;;;;31.17;39.48;100501.69;5106546;28;20652;-67
2021/07/18 08:47:31;;;;;;;6.68;4.07;;;;;;;31.05;40.28;100504.19;5104178;27;20178;-66
2021/07/18 08:49:57;;;;;;;11.27;4.00;;;;;;;30.90;40.95;100501.38;5092288;27;20186;-67
2021/07/18 08:52:25;;;;;;;7.28;3.60;;;;;;;31.10;40.39;100496.72;5097238;28;20466;-67
2021/07/18 08:54:52;;;;;;;10.75;3.63;;;;;;;31.32;40.64;100493.81;5108655;28;20178;-67
2021/07/18 08:57:20;;;;;;;12.63;3.63;;;;;;;31.46;39.82;100489.34;5109528;28;20265;-67
2021/07/18 08:59:46;;;;;;;12.48;3.50;;;;;;;31.50;38.53;100488.94;5109557;28;20234;-66
2021/07/18 09:02:13;;;;;;;8.30;4.05;;;;;;;31.40;38.02;100485.16;5109403;28;20651;-66
2021/07/18 09:04:39;;;;;;;7.80;3.95;;;;;;;31.10;37.56;100423.09;5109336;28;20286;-66
2021/07/18 09:07:07;;;;;;;10.30;3.67;;;;;;;31.34;37.95;100485.41;5109582;28;20678;-66
2021/07/18 09:09:33;;;;;;;11.60;3.80;;;;;;;30.97;39.04;100449.09;5108248;28;20206;-67
2021/07/18 09:12:05;;;;;;;9.10;4.05;;;;;;;31.50;38.24;100477.47;5104661;28;20249;-66
2021/07/18 09:14:42;;;;;;;8.05;3.60;;;;;;;31.62;39.29;100478.53;5108507;28;20175;-67
2021/07/18 09:17:18;;;;;;;8.25;3.42;;;;;;;31.82;39.04;100481.13;5106763;28;20269;-66
2021/07/18 09:19:47;;;;;;;8.80;3.65;;;;;;;32.12;38.15;100472.28;5101114;27;20198;-67
2021/07/18 09:22:18;;;;;;;6.53;3.65;;;;;;;32.34;36.94;100474.22;5090247;28;20632;-66
2021/07/18 09:24:51;;;;;;;11.38;3.95;;;;;;;32.33;36.59;100480.53;5107171;28;20215;-67
2021/07/18 09:27:18;;;;;;;8.38;3.50;;;;;;;32.42;35.62;100474.91;5108979;28;20375;-67
2021/07/18 09:29:48;;;;;;;9.05;3.60;;;;;;;32.54;35.66;100475.16;5109378;28;20174;-66
2021/07/18 09:32:19;;;;;;;9.95;3.75;;;;;;;32.76;36.10;100474.91;5109020;28;20683;-67
2021/07/18 09:34:56;;;;;;;8.98;3.72;;;;;;;33.00;36.16;100481.94;5108280;28;20170;-66
2021/07/18 09:37:27;;;;;;;11.07;3.40;;;;;;;33.12;35.68;100475.09;5108621;28;20720;-67
2021/07/18 09:40:08;;;;;;;7.88;3.15;;;;;;;33.26;35.65;100479.13;5109898;28;20261;-67
2021/07/18 09:42:48;;;;;;;8.18;3.13;;;;;;;33.03;35.74;100406.91;5109030;28;20253;-67
2021/07/18 09:45:20;;;;;;;10.13;3.17;;;;;;;33.67;36.40;100478.19;5114461;28;20169;-67
2021/07/18 09:48:03;;;;;;;7.97;3.20;;;;;;;33.64;34.20;100470.00;5130235;28;20256;-67
2021/07/18 09:50:40;;;;;;;10.75;3.22;;;;;;;33.52;33.64;100475.53;5129571;28;20158;-68
2021/07/18 09:53:17;;;;;;;10.10;3.42;;;;;;;33.65;33.25;100471.53;5128790;28;20185;-68
2021/07/18 09:55:56;;;;;;;10.05;3.42;;;;;;;33.89;32.58;100464.88;5128727;28;20240;-68
2021/07/18 09:58:23;;;;;;;10.77;3.25;;;;;;;33.68;33.78;100459.59;5128751;28;20261;-68
2021/07/18 10:00:49;;;;;;;13.98;3.55;;;;;;;33.87;33.21;100462.59;5129360;28;20256;-68
2021/07/18 10:03:22;;;;;;;8.90;3.13;;;;;;;33.07;33.27;100378.50;5129003;28;20260;-68
2021/07/18 10:06:14;;;;;;;7.85;3.28;;;;;;;33.78;33.66;100446.06;5129787;28;20626;-68
2021/07/18 10:08:45;;;;;;;6.95;3.13;;;;;;;33.70;32.54;100444.63;5109921;28;20628;-68
2021/07/18 10:11:13;;;;;;;7.15;3.10;;;;;;;33.88;31.93;100441.09;5109614;28;20246;-68
2021/07/18 10:13:41;;;;;;;8.57;3.17;;;;;;;33.80;32.30;100434.72;5091131;28;20230;-69
2021/07/18 10:16:08;;;;;;;8.55;3.33;;;;;;;33.85;31.14;100445.19;5109495;28;20178;-68
2021/07/18 10:18:45;;;;;;;7.28;3.17;;;;;;;33.70;30.90;100438.88;5109608;28;20194;-68
2021/07/18 10:21:14;;;;;;;9.38;3.08;;;;;;;33.96;30.69;100438.88;5109992;28;20180;-68
2021/07/18 10:23:42;;;;;;;5.50;3.00;;;;;;;33.60;31.25;100349.78;5109311;28;20171;-68
2021/07/18 10:26:16;;;;;;;8.63;3.00;;;;;;;34.44;31.22;100436.88;5109397;28;20643;-68
2021/07/18 10:28:42;;;;;;;8.88;3.00;;;;;;;33.94;30.39;100345.97;5109132;28;20159;-68
2021/07/18 10:31:23;;;;;;;8.73;3.25;;;;;;;34.41;29.69;100423.72;5112080;28;20170;-68
2021/07/18 10:33:50;;;;;;;8.13;2.92;;;;;;;34.68;30.58;100420.69;5113357;28;20193;-68
2021/07/18 10:36:20;;;;;;;7.43;2.90;;;;;;;34.14;30.07;100325.25;5113016;28;20186;-68
2021/07/18 10:38:45;;;;;;;9.63;3.00;;;;;;;34.73;30.15;100382.97;5113262;28;20178;-68
2021/07/18 10:41:12;;;;;;;9.00;3.13;;;;;;;35.22;29.80;100413.97;5113215;28;20574;-68
2021/07/18 10:43:48;;;;;;;7.32;3.13;;;;;;;35.37;29.76;100412.94;5113184;28;20193;-68
2021/07/18 10:46:16;;;;;;;11.23;3.65;;;;;;;35.51;29.14;100406.03;5113186;28;20430;-69
2021/07/18 10:48:47;;;;;;;8.27;3.40;;;;;;;35.42;29.33;100385.91;5113288;28;20178;-69
2021/07/18 10:51:34;;;;;;;8.35;3.00;;;;;;;35.76;28.65;100408.53;5113362;28;20177;-68
2021/07/18 10:54:14;;;;;;;8.32;3.22;;;;;;;35.88;28.79;100410.16;5113023;28;20224;-68
2021/07/18 10:56:51;;;;;;;8.20;3.08;;;;;;;35.91;28.71;100406.03;5113035;28;20504;-68
2021/07/18 10:59:38;;;;;;;8.30;3.10;;;;;;;36.15;27.43;100404.84;5112658;28;20163;-68
2021/07/18 11:02:12;;;;;;;6.70;3.03;;;;;;;36.13;27.48;100398.94;5113489;28;20163;-68
2021/07/18 11:04:45;;;;;;;9.02;3.28;;;;;;;36.30;27.84;100395.06;5113098;28;20183;-68
2021/07/18 11:07:19;;;;;;;11.43;3.35;;;;;;;35.89;28.42;100399.38;5113123;28;20186;-69
2021/07/18 11:09:46;;;;;;;6.88;2.97;;;;;;;36.32;28.67;100393.06;5113065;28;20182;-68
2021/07/18 11:12:28;;;;;;;9.32;2.90;;;;;;;36.10;28.35;100391.53;5113044;28;20248;-68
2021/07/18 11:15:22;;;;;;;8.07;3.05;;;;;;;36.15;28.90;100381.78;5112976;28;20682;-68
2021/07/18 11:18:04;;;;;;;9.55;2.92;;;;;;;36.22;28.32;100391.59;5112791;28;20220;-68
2021/07/18 11:20:48;;;;;;;8.30;3.35;;;;;;;36.34;27.74;100380.91;5113464;28;20192;-68
2021/07/18 11:23:20;;;;;;;6.40;2.60;;;;;;;36.56;27.19;100379.50;5112297;28;20176;-68